Time;durP1;ratioP1;P1;durP2;ratioP2;P2;SDS_P1;SDS_P2;PMS_P1;PMS_P2;Temp;Humidity;BMP_temperature;BMP_pressure;BME280_temperature;BME280_humidity;BME280_pressure;Samples;Min_cycle;Max_cycle;Signal;HPM_P1;HPM_P2
2021/07/02 00:00:09;;;;;;;8.60;7.70;;;;;23.10;100569.00;;;;2058224;28;20218;-65
2021/07/02 00:01:09;;;;;;;8.48;7.65;;;;;23.10;100568.00;;;;2065498;28;20218;-65
2021/07/02 00:02:10;;;;;;;8.20;7.43;;;;;23.10;100564.00;;;;2065507;28;20293;-65
2021/07/02 00:03:10;;;;;;;7.63;6.93;;;;;23.10;100564.00;;;;2058817;28;20213;-65
2021/07/02 00:04:10;;;;;;;7.90;7.13;;;;;23.10;100568.00;;;;2059685;28;20257;-65
2021/07/02 00:05:11;;;;;;;8.33;7.60;;;;;23.10;100561.00;;;;2060632;28;20242;-65
2021/07/02 00:06:12;;;;;;;8.80;8.00;;;;;23.10;100559.00;;;;2062289;28;20234;-65
2021/07/02 00:07:12;;;;;;;8.33;7.53;;;;;23.10;100556.00;;;;2057940;28;20966;-65
2021/07/02 00:08:12;;;;;;;8.40;7.70;;;;;23.10;100556.00;;;;2058127;28;21454;-65
2021/07/02 00:09:13;;;;;;;8.97;8.17;;;;;23.10;100565.00;;;;2059112;28;20242;-65
2021/07/02 00:10:13;;;;;;;8.50;7.60;;;;;23.00;100557.00;;;;2058863;28;20230;-65
2021/07/02 00:11:14;;;;;;;8.80;7.90;;;;;23.10;100560.00;;;;2059314;28;20219;-65
2021/07/02 00:12:14;;;;;;;8.73;7.43;;;;;23.00;100556.00;;;;2058799;28;20735;-65
2021/07/02 00:13:14;;;;;;;8.60;7.77;;;;;23.10;100562.00;;;;2058059;28;20214;-65
2021/07/02 00:14:15;;;;;;;9.13;8.23;;;;;23.10;100561.00;;;;2058402;28;20214;-65
2021/07/02 00:15:15;;;;;;;7.80;7.00;;;;;23.10;100556.00;;;;2058887;28;20226;-65
2021/07/02 00:16:15;;;;;;;8.90;7.87;;;;;23.10;100557.00;;;;2058859;28;20694;-65
2021/07/02 00:17:16;;;;;;;9.00;8.20;;;;;23.00;100559.00;;;;2059538;28;20281;-65
2021/07/02 00:18:16;;;;;;;7.97;7.23;;;;;23.10;100558.00;;;;2059624;28;20208;-65
2021/07/02 00:19:16;;;;;;;8.17;7.37;;;;;23.10;100564.00;;;;2059386;28;20246;-65
2021/07/02 00:20:17;;;;;;;8.63;7.83;;;;;23.10;100551.00;;;;2059256;28;20242;-65
2021/07/02 00:21:17;;;;;;;8.77;7.87;;;;;23.00;100557.00;;;;2058944;28;20577;-65
2021/07/02 00:22:18;;;;;;;8.57;7.67;;;;;23.00;100558.00;;;;2058878;28;20222;-65
2021/07/02 00:23:19;;;;;;;7.50;6.80;;;;;23.10;100555.00;;;;2058566;28;20636;-65
2021/07/02 00:24:19;;;;;;;9.10;7.50;;;;;23.00;100557.00;;;;2058775;28;20239;-65
2021/07/02 00:25:19;;;;;;;8.37;6.80;;;;;23.10;100558.00;;;;2058977;28;20212;-65
2021/07/02 00:26:20;;;;;;;8.27;7.43;;;;;23.10;100555.00;;;;2059638;28;20223;-65
2021/07/02 00:27:20;;;;;;;8.40;7.60;;;;;23.00;100550.00;;;;2059616;28;20238;-65
2021/07/02 00:28:20;;;;;;;10.23;7.30;;;;;23.10;100551.00;;;;2059643;28;20210;-65
2021/07/02 00:29:21;;;;;;;8.10;7.30;;;;;23.00;100555.00;;;;2059424;28;20694;-65
2021/07/02 00:30:21;;;;;;;7.10;6.40;;;;;23.00;100548.00;;;;2058505;28;20211;-65
2021/07/02 00:31:22;;;;;;;8.43;7.53;;;;;23.00;100547.00;;;;2058746;28;20670;-65
2021/07/02 00:32:22;;;;;;;8.37;7.47;;;;;23.00;100542.00;;;;2060756;28;20224;-66
2021/07/02 00:33:22;;;;;;;8.57;7.70;;;;;23.00;100541.00;;;;2060840;28;20211;-65
2021/07/02 00:34:22;;;;;;;8.27;7.47;;;;;23.00;100550.00;;;;2063153;28;20243;-65
2021/07/02 00:35:23;;;;;;;7.83;6.90;;;;;23.00;100548.00;;;;2061047;28;20220;-65
2021/07/02 00:36:23;;;;;;;8.80;7.90;;;;;23.10;100551.00;;;;2058799;28;20231;-66
2021/07/02 00:37:23;;;;;;;9.40;7.60;;;;;23.00;100544.00;;;;2059204;28;20221;-65
2021/07/02 00:38:24;;;;;;;8.10;7.40;;;;;23.00;100540.00;;;;2058098;28;20238;-65
2021/07/02 00:39:24;;;;;;;8.07;7.33;;;;;23.00;100546.00;;;;2058123;28;20258;-65
2021/07/02 00:40:25;;;;;;;8.53;7.70;;;;;23.00;100544.00;;;;2057592;28;20234;-65
2021/07/02 00:41:25;;;;;;;8.23;7.43;;;;;23.00;100546.00;;;;2058727;28;20227;-65
2021/07/02 00:42:25;;;;;;;8.60;7.50;;;;;23.00;100546.00;;;;2058850;28;20314;-65
2021/07/02 00:43:25;;;;;;;8.00;7.20;;;;;23.00;100544.00;;;;2058794;28;20286;-65
2021/07/02 00:44:46;;;;;;;7.87;6.93;;;;;23.00;100543.00;;;;2059610;28;20244;-65
2021/07/02 00:45:47;;;;;;;7.72;7.03;;;;;23.00;100548.00;;;;2058652;28;20227;-65
2021/07/02 00:46:47;;;;;;;8.27;7.47;;;;;23.00;100540.00;;;;2058736;28;20226;-65
2021/07/02 00:47:47;;;;;;;7.10;6.50;;;;;23.00;100543.00;;;;2058259;28;20220;-65
2021/07/02 00:48:48;;;;;;;7.97;7.30;;;;;23.00;100538.00;;;;2059349;28;20226;-65
2021/07/02 00:49:48;;;;;;;8.07;7.30;;;;;23.00;100543.00;;;;2058650;28;20222;-65
2021/07/02 00:50:48;;;;;;;8.30;7.50;;;;;23.00;100542.00;;;;2057769;28;20359;-65
2021/07/02 00:51:49;;;;;;;8.10;7.30;;;;;23.00;100540.00;;;;2064751;28;20218;-65
2021/07/02 00:52:49;;;;;;;9.20;7.77;;;;;23.00;100538.00;;;;2062613;28;20224;-65
2021/07/02 00:53:50;;;;;;;7.90;7.03;;;;;23.00;100532.00;;;;2041786;28;20216;-65
2021/07/02 00:54:50;;;;;;;8.43;7.53;;;;;23.00;100545.00;;;;2049900;28;20235;-65
2021/07/02 00:55:50;;;;;;;7.90;7.10;;;;;23.00;100536.00;;;;2058110;28;20247;-65
2021/07/02 00:56:51;;;;;;;8.17;7.30;;;;;23.00;100531.00;;;;2056890;28;20714;-65
2021/07/02 00:57:51;;;;;;;8.40;7.60;;;;;23.00;100536.00;;;;2044918;28;20270;-65
2021/07/02 00:58:52;;;;;;;9.03;8.23;;;;;23.00;100526.00;;;;2038735;29;20225;-65
2021/07/02 00:59:52;;;;;;;7.77;7.10;;;;;23.00;100528.00;;;;2051303;28;20316;-65
2021/07/02 01:00:52;;;;;;;8.20;7.40;;;;;23.10;100538.00;;;;2058287;28;20326;-65
2021/07/02 01:01:53;;;;;;;8.27;7.47;;;;;23.00;100526.00;;;;2060241;28;20698;-65
2021/07/02 01:02:53;;;;;;;8.13;7.40;;;;;23.00;100533.00;;;;2059336;28;20307;-65
2021/07/02 01:03:53;;;;;;;8.67;7.77;;;;;23.00;100533.00;;;;2060256;28;20224;-65
2021/07/02 01:04:54;;;;;;;7.73;7.03;;;;;23.00;100540.00;;;;2060467;28;20695;-65
2021/07/02 01:05:54;;;;;;;7.90;7.20;;;;;23.00;100534.00;;;;2060130;28;20705;-65
2021/07/02 01:06:54;;;;;;;8.13;7.13;;;;;23.00;100530.00;;;;2059622;28;21037;-63
2021/07/02 01:07:55;;;;;;;7.80;7.00;;;;;23.00;100537.00;;;;2059414;28;20261;-64
2021/07/02 01:08:55;;;;;;;8.10;7.40;;;;;23.00;100532.00;;;;2059405;28;20768;-65
2021/07/02 01:09:55;;;;;;;8.30;7.50;;;;;23.00;100534.00;;;;2060029;28;20617;-65
2021/07/02 01:10:56;;;;;;;8.70;7.80;;;;;23.00;100525.00;;;;2060617;28;20215;-65
2021/07/02 01:11:56;;;;;;;8.23;7.43;;;;;23.00;100532.00;;;;2060206;28;20223;-65
2021/07/02 01:12:56;;;;;;;8.37;7.47;;;;;23.00;100529.00;;;;2051988;28;20216;-65
2021/07/02 01:13:57;;;;;;;8.37;7.67;;;;;23.00;100530.00;;;;2060127;28;20222;-65
2021/07/02 01:14:57;;;;;;;8.20;7.40;;;;;23.00;100527.00;;;;2058819;28;20227;-65
2021/07/02 01:15:57;;;;;;;8.03;7.23;;;;;23.00;100533.00;;;;2059757;28;20218;-65
2021/07/02 01:16:58;;;;;;;8.50;7.70;;;;;23.00;100530.00;;;;2059882;28;20280;-65
2021/07/02 01:17:58;;;;;;;7.70;6.90;;;;;23.00;100538.00;;;;2060056;28;20219;-65
2021/07/02 01:18:58;;;;;;;8.47;7.43;;;;;23.00;100526.00;;;;2060379;28;20215;-65
2021/07/02 01:19:59;;;;;;;8.73;7.93;;;;;23.00;100530.00;;;;2061915;28;20210;-65
2021/07/02 01:20:59;;;;;;;8.23;7.43;;;;;23.00;100526.00;;;;2063081;28;20222;-65
2021/07/02 01:22:00;;;;;;;7.67;6.90;;;;;23.00;100533.00;;;;2061884;28;20208;-65
2021/07/02 01:23:00;;;;;;;7.80;7.10;;;;;23.00;100535.00;;;;2060481;28;20219;-65
2021/07/02 01:24:00;;;;;;;8.13;7.40;;;;;23.00;100526.00;;;;2060877;28;20849;-65
2021/07/02 01:25:01;;;;;;;7.87;7.17;;;;;23.00;100527.00;;;;2060206;28;20619;-65
2021/07/02 01:26:01;;;;;;;8.23;7.43;;;;;23.00;100531.00;;;;2060166;28;20210;-65
2021/07/02 01:27:01;;;;;;;8.37;7.67;;;;;23.00;100526.00;;;;2059930;28;20292;-65
2021/07/02 01:28:02;;;;;;;8.10;7.40;;;;;23.00;100519.00;;;;2059346;28;20215;-65
2021/07/02 01:29:02;;;;;;;9.30;8.27;;;;;23.00;100528.00;;;;2059909;28;20226;-65
2021/07/02 01:30:04;;;;;;;9.27;8.13;;;;;23.00;100526.00;;;;2059897;28;20446;-65
2021/07/02 01:31:05;;;;;;;7.78;7.07;;;;;23.00;100524.00;;;;2059561;28;20223;-65
2021/07/02 01:32:05;;;;;;;8.10;7.30;;;;;23.00;100530.00;;;;2060513;28;20215;-65
2021/07/02 01:33:06;;;;;;;8.23;7.43;;;;;23.00;100528.00;;;;2060456;28;20219;-65
2021/07/02 01:34:06;;;;;;;8.73;7.83;;;;;23.00;100529.00;;;;2060609;28;20298;-64
2021/07/02 01:35:07;;;;;;;9.20;7.70;;;;;23.00;100528.00;;;;2060666;28;20215;-65
2021/07/02 01:36:08;;;;;;;8.03;7.33;;;;;23.00;100526.00;;;;2060017;28;20311;-65
2021/07/02 01:37:09;;;;;;;8.90;8.00;;;;;23.00;100531.00;;;;2059932;28;20215;-65
2021/07/02 01:38:10;;;;;;;8.63;7.73;;;;;23.00;100526.00;;;;2059318;28;20633;-65
2021/07/02 01:39:10;;;;;;;8.27;7.50;;;;;23.00;100538.00;;;;2059848;28;20459;-65
2021/07/02 01:40:11;;;;;;;8.67;7.80;;;;;23.00;100534.00;;;;2060267;28;20258;-65
2021/07/02 01:41:11;;;;;;;8.40;7.63;;;;;23.00;100527.00;;;;2060490;28;20208;-65
2021/07/02 01:42:12;;;;;;;9.60;7.97;;;;;23.00;100531.00;;;;2060792;28;20529;-65
2021/07/02 01:43:12;;;;;;;9.67;8.67;;;;;23.00;100532.00;;;;2060540;28;20217;-65
2021/07/02 01:44:12;;;;;;;9.40;8.17;;;;;23.00;100533.00;;;;2060250;28;20211;-65
2021/07/02 01:45:13;;;;;;;9.30;8.40;;;;;23.00;100535.00;;;;2059891;28;20211;-65
2021/07/02 01:46:13;;;;;;;8.70;7.90;;;;;23.00;100532.00;;;;2058889;28;20218;-65
2021/07/02 01:47:14;;;;;;;8.40;7.70;;;;;23.00;100529.00;;;;2051170;28;20220;-65
2021/07/02 01:48:14;;;;;;;8.67;7.87;;;;;23.00;100530.00;;;;2059123;28;20223;-65
2021/07/02 01:49:15;;;;;;;8.23;7.47;;;;;23.00;100527.00;;;;2060442;28;20223;-65
2021/07/02 01:50:15;;;;;;;8.80;8.10;;;;;23.00;100520.00;;;;2061699;28;20235;-65
2021/07/02 01:51:15;;;;;;;8.93;8.10;;;;;23.00;100530.00;;;;2066683;28;20215;-65
2021/07/02 01:52:16;;;;;;;9.20;7.53;;;;;23.00;100531.00;;;;2065197;28;20208;-65
2021/07/02 01:53:16;;;;;;;10.30;8.20;;;;;23.00;100522.00;;;;2060656;28;20310;-65
2021/07/02 01:54:17;;;;;;;9.90;8.70;;;;;23.00;100522.00;;;;2060456;28;20212;-65
2021/07/02 01:55:17;;;;;;;9.03;8.00;;;;;23.00;100519.00;;;;2060416;28;20208;-65
2021/07/02 01:56:17;;;;;;;10.73;8.60;;;;;23.00;100526.00;;;;2060542;28;20317;-65
2021/07/02 01:57:20;;;;;;;8.60;7.77;;;;;23.00;100521.00;;;;2059667;28;20233;-65
2021/07/02 01:58:21;;;;;;;9.15;7.97;;;;;23.00;100520.00;;;;2059860;28;20214;-65
2021/07/02 01:59:21;;;;;;;9.40;8.60;;;;;23.00;100528.00;;;;2059779;28;20673;-65
2021/07/02 02:00:22;;;;;;;8.87;8.07;;;;;23.00;100519.00;;;;2059183;28;20204;-65
2021/07/02 02:01:23;;;;;;;8.30;7.50;;;;;23.00;100522.00;;;;2060157;28;20218;-65
2021/07/02 02:02:23;;;;;;;9.25;8.45;;;;;23.00;100520.00;;;;2060495;28;20216;-65
2021/07/02 02:03:23;;;;;;;8.60;7.80;;;;;23.00;100530.00;;;;2053922;28;20279;-65
2021/07/02 02:04:24;;;;;;;9.23;8.20;;;;;23.00;100509.00;;;;2067878;28;20908;-65
2021/07/02 02:05:24;;;;;;;11.03;9.00;;;;;23.00;100510.00;;;;2064403;28;20613;-65
2021/07/02 02:06:24;;;;;;;8.57;7.77;;;;;23.00;100514.00;;;;2059642;28;20598;-65
2021/07/02 02:07:25;;;;;;;8.97;8.10;;;;;23.00;100523.00;;;;2059722;28;20219;-65
2021/07/02 02:08:25;;;;;;;9.23;8.33;;;;;23.00;100520.00;;;;2059769;28;20697;-65
2021/07/02 02:09:25;;;;;;;9.17;8.27;;;;;23.00;100517.00;;;;2059650;28;20223;-65
2021/07/02 02:10:26;;;;;;;9.73;8.73;;;;;23.00;100524.00;;;;2059411;28;20219;-65
2021/07/02 02:11:27;;;;;;;9.13;8.20;;;;;23.00;100522.00;;;;2059125;28;20272;-65
2021/07/02 02:12:28;;;;;;;9.07;8.18;;;;;23.00;100530.00;;;;2059627;28;20305;-65
2021/07/02 02:13:28;;;;;;;8.77;7.97;;;;;23.00;100531.00;;;;2059529;28;20216;-65
2021/07/02 02:14:28;;;;;;;8.83;8.00;;;;;23.00;100530.00;;;;2060072;28;20207;-65
2021/07/02 02:15:29;;;;;;;9.80;8.90;;;;;23.00;100528.00;;;;2060374;28;20705;-65
2021/07/02 02:16:29;;;;;;;8.73;7.90;;;;;23.00;100524.00;;;;2060301;28;20216;-65
2021/07/02 02:17:30;;;;;;;9.47;8.33;;;;;23.00;100524.00;;;;2060329;28;20222;-65
2021/07/02 02:18:30;;;;;;;9.90;8.90;;;;;22.90;100517.00;;;;2059945;28;20743;-65
2021/07/02 02:19:30;;;;;;;9.40;8.50;;;;;22.90;100519.00;;;;2059490;28;20222;-65
2021/07/02 02:20:31;;;;;;;8.70;7.90;;;;;23.00;100522.00;;;;2060761;28;20250;-65
2021/07/02 02:21:31;;;;;;;8.60;7.70;;;;;23.00;100515.00;;;;2061947;28;20226;-65
2021/07/02 02:22:31;;;;;;;9.00;8.20;;;;;23.00;100513.00;;;;2063695;28;20210;-65
2021/07/02 02:23:32;;;;;;;9.63;8.47;;;;;23.00;100514.00;;;;2062797;28;20215;-65
2021/07/02 02:24:32;;;;;;;9.40;8.50;;;;;23.00;100519.00;;;;2059339;28;20690;-65
2021/07/02 02:25:32;;;;;;;9.73;8.77;;;;;22.90;100519.00;;;;2061456;28;20210;-65
2021/07/02 02:26:33;;;;;;;8.57;7.77;;;;;23.00;100523.00;;;;2059865;28;20301;-65
2021/07/02 02:27:34;;;;;;;9.83;8.20;;;;;23.00;100527.00;;;;2059846;28;20578;-65
2021/07/02 02:28:34;;;;;;;9.50;8.10;;;;;22.90;100526.00;;;;2059226;28;20219;-65
2021/07/02 02:29:34;;;;;;;9.60;8.43;;;;;22.90;100515.00;;;;2059874;28;21425;-65
2021/07/02 02:30:36;;;;;;;8.33;7.57;;;;;22.90;100518.00;;;;2060108;28;20318;-65
2021/07/02 02:31:36;;;;;;;8.48;7.68;;;;;23.00;100516.00;;;;2059584;28;20894;-65
2021/07/02 02:32:38;;;;;;;8.80;7.90;;;;;23.00;100524.00;;;;2059293;28;20218;-65
2021/07/02 02:33:38;;;;;;;9.60;8.60;;;;;23.00;100523.00;;;;2059343;28;20207;-65
2021/07/02 02:34:38;;;;;;;9.53;8.60;;;;;23.00;100520.00;;;;2058733;28;20212;-65
2021/07/02 02:35:39;;;;;;;8.90;7.40;;;;;23.00;100526.00;;;;2059155;28;20761;-65
2021/07/02 02:36:39;;;;;;;9.77;8.27;;;;;23.00;100523.00;;;;2060372;28;20699;-65
2021/07/02 02:37:39;;;;;;;8.60;7.70;;;;;23.00;100522.00;;;;2060344;28;20257;-65
2021/07/02 02:38:40;;;;;;;9.30;8.27;;;;;23.00;100520.00;;;;2060278;28;20207;-65
2021/07/02 02:39:40;;;;;;;8.70;7.90;;;;;22.90;100516.00;;;;2059981;28;20690;-65
2021/07/02 02:40:41;;;;;;;9.90;8.90;;;;;22.90;100522.00;;;;2059094;28;20757;-65
2021/07/02 02:41:41;;;;;;;8.60;7.80;;;;;22.90;100516.00;;;;2059470;28;20207;-65
2021/07/02 02:42:41;;;;;;;8.80;8.00;;;;;22.90;100519.00;;;;2059461;28;20214;-65
2021/07/02 02:43:41;;;;;;;8.57;7.77;;;;;23.00;100522.00;;;;2059131;28;20690;-65
2021/07/02 02:44:42;;;;;;;9.53;8.47;;;;;22.90;100523.00;;;;2058744;28;20716;-65
2021/07/02 02:45:42;;;;;;;8.90;8.00;;;;;23.00;100521.00;;;;2059331;28;20709;-65
2021/07/02 02:46:42;;;;;;;8.43;7.50;;;;;22.90;100523.00;;;;2059374;28;20318;-65
2021/07/02 02:47:43;;;;;;;8.87;7.93;;;;;22.90;100520.00;;;;2059376;28;20266;-65
2021/07/02 02:48:43;;;;;;;8.60;7.70;;;;;22.90;100521.00;;;;2059928;28;20208;-65
2021/07/02 02:49:43;;;;;;;9.90;8.90;;;;;23.00;100511.00;;;;2060145;28;20262;-65
2021/07/02 02:50:44;;;;;;;9.30;7.67;;;;;22.90;100520.00;;;;2059720;28;20211;-65
2021/07/02 02:51:44;;;;;;;9.10;8.20;;;;;22.90;100522.00;;;;2059968;28;20219;-65
2021/07/02 02:52:45;;;;;;;8.90;8.10;;;;;22.90;100523.00;;;;2059880;28;20211;-65
2021/07/02 02:53:45;;;;;;;8.87;8.07;;;;;23.00;100521.00;;;;2059148;28;20705;-65
2021/07/02 02:54:45;;;;;;;8.70;7.87;;;;;22.90;100528.00;;;;2059185;28;20223;-65
2021/07/02 02:55:46;;;;;;;8.33;7.53;;;;;22.90;100519.00;;;;2061119;28;20215;-65
2021/07/02 02:57:04;;;;;;;9.17;8.27;;;;;22.90;100509.00;;;;2062168;28;20229;-65
2021/07/02 02:58:05;;;;;;;8.38;7.68;;;;;22.80;100518.00;;;;2059223;28;20239;-65
2021/07/02 02:59:05;;;;;;;9.40;8.57;;;;;22.90;100523.00;;;;2059071;28;20216;-66
2021/07/02 03:00:07;;;;;;;9.53;8.63;;;;;22.90;100516.00;;;;2059571;28;20215;-65
2021/07/02 03:01:07;;;;;;;8.60;7.85;;;;;22.90;100522.00;;;;2059456;28;20224;-65
2021/07/02 03:02:08;;;;;;;9.37;8.40;;;;;22.90;100521.00;;;;2060033;28;20215;-65
2021/07/02 03:03:09;;;;;;;8.90;8.00;;;;;22.90;100512.00;;;;2059592;28;20238;-65
2021/07/02 03:04:11;;;;;;;10.40;8.17;;;;;22.90;100522.00;;;;2058508;28;20235;-65
2021/07/02 03:05:11;;;;;;;8.73;7.88;;;;;22.90;100525.00;;;;2058978;28;20210;-65
2021/07/02 03:06:13;;;;;;;8.87;7.50;;;;;22.90;100529.00;;;;2058644;28;20679;-65
2021/07/02 03:07:13;;;;;;;9.10;8.27;;;;;22.90;100514.00;;;;2059729;28;20258;-65
2021/07/02 03:08:13;;;;;;;8.53;7.73;;;;;22.90;100520.00;;;;2060054;28;20220;-65
2021/07/02 03:09:14;;;;;;;8.73;7.90;;;;;22.90;100527.00;;;;2060041;28;20596;-66
2021/07/02 03:10:14;;;;;;;8.97;7.40;;;;;22.90;100527.00;;;;2059809;28;20649;-65
2021/07/02 03:11:18;;;;;;;9.07;8.20;;;;;22.90;100531.00;;;;2059657;28;20238;-65
2021/07/02 03:12:18;;;;;;;8.20;7.40;;;;;22.90;100526.00;;;;2059088;28;20785;-65
2021/07/02 03:13:19;;;;;;;8.70;7.90;;;;;22.90;100530.00;;;;2058974;28;20211;-65
2021/07/02 03:14:20;;;;;;;9.30;7.73;;;;;22.90;100544.00;;;;2059051;28;20208;-65
2021/07/02 03:15:20;;;;;;;8.93;8.10;;;;;22.90;100532.00;;;;2059703;28;20251;-65
2021/07/02 03:16:20;;;;;;;8.70;7.80;;;;;22.90;100529.00;;;;2060033;28;20457;-65
2021/07/02 03:17:21;;;;;;;8.70;7.90;;;;;22.90;100534.00;;;;2060078;28;20208;-65
2021/07/02 03:18:21;;;;;;;8.70;7.90;;;;;22.90;100531.00;;;;2059109;28;20250;-65
2021/07/02 03:19:21;;;;;;;8.53;7.80;;;;;22.90;100530.00;;;;2058944;28;20331;-65
2021/07/02 03:20:22;;;;;;;8.37;7.60;;;;;22.90;100527.00;;;;2058856;28;20203;-65
2021/07/02 03:21:22;;;;;;;9.07;8.23;;;;;22.90;100527.00;;;;2059052;28;20745;-65
2021/07/02 03:22:22;;;;;;;9.00;8.07;;;;;22.90;100539.00;;;;2058317;28;20226;-66
2021/07/02 03:23:23;;;;;;;8.10;7.30;;;;;22.90;100525.00;;;;2058068;28;20212;-65
2021/07/02 03:24:23;;;;;;;8.40;7.50;;;;;22.90;100529.00;;;;2058448;28;20234;-65
2021/07/02 03:25:23;;;;;;;7.60;7.00;;;;;22.90;100533.00;;;;2057507;28;20839;-65
2021/07/02 03:26:24;;;;;;;8.17;7.30;;;;;22.90;100537.00;;;;2059007;28;20218;-65
2021/07/02 03:27:25;;;;;;;7.93;7.13;;;;;22.90;100537.00;;;;2059049;28;20250;-65
2021/07/02 03:28:25;;;;;;;7.83;7.03;;;;;22.90;100535.00;;;;2059377;28;20474;-65
2021/07/02 03:29:25;;;;;;;10.23;7.50;;;;;22.90;100542.00;;;;2059028;28;20239;-65
2021/07/02 03:30:26;;;;;;;10.50;8.03;;;;;22.90;100537.00;;;;2058684;28;20223;-65
2021/07/02 03:31:26;;;;;;;9.70;7.90;;;;;22.90;100538.00;;;;2059470;28;20219;-65
2021/07/02 03:32:26;;;;;;;7.73;6.93;;;;;22.90;100532.00;;;;2056765;28;20357;-65
2021/07/02 03:33:27;;;;;;;10.03;8.40;;;;;22.90;100537.00;;;;2057398;28;20764;-65
2021/07/02 03:34:27;;;;;;;7.17;6.50;;;;;22.90;100534.00;;;;2058515;28;20215;-65
2021/07/02 03:35:27;;;;;;;8.47;7.40;;;;;22.90;100532.00;;;;2058426;28;20332;-65
2021/07/02 03:36:28;;;;;;;7.90;7.10;;;;;22.90;100539.00;;;;2058315;28;20211;-65
2021/07/02 03:37:28;;;;;;;8.27;7.27;;;;;22.90;100533.00;;;;2059223;28;20208;-65
2021/07/02 03:38:28;;;;;;;9.47;8.13;;;;;22.90;100537.00;;;;2059321;28;20211;-65
2021/07/02 03:39:29;;;;;;;8.60;7.80;;;;;22.90;100543.00;;;;2059488;28;20215;-65
2021/07/02 03:40:30;;;;;;;7.70;7.03;;;;;22.90;100539.00;;;;2059008;28;20206;-65
2021/07/02 03:41:31;;;;;;;8.07;7.28;;;;;22.90;100535.00;;;;2058264;28;20845;-65
2021/07/02 03:42:31;;;;;;;8.13;7.33;;;;;22.90;100538.00;;;;2057443;28;20207;-65
2021/07/02 03:43:31;;;;;;;8.53;7.43;;;;;22.90;100536.00;;;;2058084;28;20516;-65
2021/07/02 03:44:32;;;;;;;9.60;7.60;;;;;22.90;100539.00;;;;2058487;28;20719;-65
2021/07/02 03:45:32;;;;;;;9.17;7.60;;;;;22.90;100547.00;;;;2058858;28;20204;-65
2021/07/02 03:46:32;;;;;;;8.20;7.40;;;;;22.90;100541.00;;;;2058989;28;20650;-65
2021/07/02 03:47:33;;;;;;;8.30;7.30;;;;;22.90;100542.00;;;;2058667;28;20208;-65
2021/07/02 03:48:33;;;;;;;9.03;7.73;;;;;22.90;100545.00;;;;2059513;28;20262;-65
2021/07/02 03:49:33;;;;;;;8.50;7.70;;;;;22.90;100544.00;;;;2058898;28;20226;-65
2021/07/02 03:50:34;;;;;;;7.63;6.93;;;;;22.90;100541.00;;;;2058297;28;20218;-65
2021/07/02 03:51:34;;;;;;;8.37;7.57;;;;;22.90;100544.00;;;;2058259;28;20253;-65
2021/07/02 03:52:34;;;;;;;8.23;7.37;;;;;22.90;100542.00;;;;2058645;28;20223;-65
2021/07/02 03:53:35;;;;;;;8.13;7.27;;;;;22.90;100544.00;;;;2058567;28;21026;-65
2021/07/02 03:54:35;;;;;;;8.03;7.23;;;;;22.90;100544.00;;;;2059868;28;20215;-65
2021/07/02 03:55:35;;;;;;;7.97;7.17;;;;;22.90;100551.00;;;;2057757;28;20218;-64
2021/07/02 03:56:36;;;;;;;10.37;7.50;;;;;22.90;100546.00;;;;2060864;28;20195;-65
2021/07/02 03:57:36;;;;;;;8.07;6.80;;;;;22.90;100546.00;;;;2059827;28;20241;-65
2021/07/02 03:58:38;;;;;;;7.60;6.83;;;;;22.90;100541.00;;;;2057821;28;20253;-65
2021/07/02 03:59:41;;;;;;;8.07;7.38;;;;;22.90;100543.00;;;;2058420;28;20214;-65
2021/07/02 04:00:42;;;;;;;8.48;7.55;;;;;22.90;100547.00;;;;2058114;28;20235;-65
2021/07/02 04:01:42;;;;;;;8.00;7.20;;;;;22.90;100554.00;;;;2058632;28;20670;-65
2021/07/02 04:02:42;;;;;;;7.37;6.67;;;;;22.90;100552.00;;;;2057369;28;20229;-65
2021/07/02 04:03:43;;;;;;;8.27;7.03;;;;;22.90;100553.00;;;;2058348;28;20230;-65
2021/07/02 04:04:43;;;;;;;7.70;7.00;;;;;22.90;100548.00;;;;2057961;28;20674;-65
2021/07/02 04:05:44;;;;;;;7.87;7.10;;;;;22.90;100555.00;;;;2061851;28;20242;-65
2021/07/02 04:06:45;;;;;;;7.50;6.90;;;;;22.90;100552.00;;;;2060168;28;20207;-65
2021/07/02 04:07:45;;;;;;;7.17;6.57;;;;;22.90;100555.00;;;;2058810;28;20210;-65
2021/07/02 04:08:45;;;;;;;8.83;7.47;;;;;22.90;100554.00;;;;2058297;28;20214;-63
2021/07/02 04:09:46;;;;;;;9.73;7.13;;;;;22.90;100543.00;;;;2058575;28;20250;-65
2021/07/02 04:10:46;;;;;;;7.53;6.83;;;;;22.90;100550.00;;;;2058365;28;20220;-65
2021/07/02 04:11:46;;;;;;;8.03;6.70;;;;;22.90;100556.00;;;;2059159;28;20254;-65
2021/07/02 04:12:46;;;;;;;8.10;7.40;;;;;22.90;100551.00;;;;2053316;28;20782;-65
2021/07/02 04:13:47;;;;;;;8.40;7.40;;;;;22.90;100548.00;;;;2058970;28;20635;-65
2021/07/02 04:14:47;;;;;;;8.77;6.93;;;;;22.90;100556.00;;;;2059254;28;20689;-65
2021/07/02 04:15:49;;;;;;;7.27;6.67;;;;;22.90;100554.00;;;;2058262;28;20709;-65
2021/07/02 04:16:49;;;;;;;7.00;6.30;;;;;22.90;100556.00;;;;2058446;28;20686;-65
2021/07/02 04:17:49;;;;;;;7.83;7.07;;;;;22.90;100559.00;;;;2056379;28;20270;-65
2021/07/02 04:18:50;;;;;;;7.50;6.80;;;;;22.90;100555.00;;;;2058754;28;20224;-65
2021/07/02 04:19:50;;;;;;;7.73;7.00;;;;;22.90;100564.00;;;;2059630;28;20220;-65
2021/07/02 04:20:50;;;;;;;8.27;7.27;;;;;22.90;100557.00;;;;2057149;28;20233;-65
2021/07/02 04:21:51;;;;;;;7.57;6.80;;;;;22.90;100565.00;;;;2067155;28;20250;-65
2021/07/02 04:22:51;;;;;;;8.10;7.40;;;;;22.90;100562.00;;;;2059058;28;20756;-65
2021/07/02 04:23:52;;;;;;;7.57;6.87;;;;;22.90;100566.00;;;;2058285;28;20254;-65
2021/07/02 04:24:52;;;;;;;8.70;6.97;;;;;22.90;100559.00;;;;2058312;28;20227;-65
2021/07/02 04:25:52;;;;;;;8.10;6.93;;;;;22.90;100566.00;;;;2058342;28;20215;-65
2021/07/02 04:26:54;;;;;;;7.77;6.40;;;;;22.90;100562.00;;;;2058464;28;20244;-65
2021/07/02 04:27:54;;;;;;;7.43;6.70;;;;;22.90;100569.00;;;;2058511;28;20344;-65
2021/07/02 04:28:54;;;;;;;8.60;7.70;;;;;22.90;100559.00;;;;2059183;28;20273;-65
2021/07/02 04:29:55;;;;;;;7.80;7.00;;;;;22.90;100560.00;;;;2058830;28;20223;-65
2021/07/02 04:30:55;;;;;;;7.00;6.40;;;;;22.90;100567.00;;;;2059004;28;20230;-65
2021/07/02 04:31:55;;;;;;;8.07;7.27;;;;;22.90;100568.00;;;;2059530;28;20221;-65
2021/07/02 04:32:56;;;;;;;7.30;6.70;;;;;22.90;100563.00;;;;2058536;28;20219;-65
2021/07/02 04:33:56;;;;;;;10.40;6.87;;;;;22.90;100557.00;;;;2058858;28;20261;-65
2021/07/02 04:34:56;;;;;;;7.17;6.47;;;;;22.90;100562.00;;;;2059077;28;20226;-65
2021/07/02 04:35:57;;;;;;;7.23;6.60;;;;;22.90;100566.00;;;;2060457;28;20215;-65
2021/07/02 04:36:57;;;;;;;7.20;6.30;;;;;22.90;100556.00;;;;2066577;28;20707;-65
2021/07/02 04:37:57;;;;;;;7.57;6.77;;;;;22.90;100566.00;;;;2064828;28;20739;-65
2021/07/02 04:38:58;;;;;;;8.17;7.37;;;;;22.90;100568.00;;;;2060338;28;20219;-65
2021/07/02 04:39:58;;;;;;;8.10;7.30;;;;;22.90;100567.00;;;;2060266;28;20219;-65
2021/07/02 04:40:59;;;;;;;7.00;6.30;;;;;22.90;100565.00;;;;2051577;28;20223;-65
2021/07/02 04:41:59;;;;;;;8.83;6.80;;;;;22.90;100557.00;;;;2068504;28;20637;-65
2021/07/02 04:42:59;;;;;;;9.13;7.10;;;;;22.90;100567.00;;;;2067897;28;20641;-65
2021/07/02 04:44:00;;;;;;;8.40;6.67;;;;;22.90;100569.00;;;;2060979;28;20634;-65
2021/07/02 04:45:00;;;;;;;6.63;6.03;;;;;22.90;100565.00;;;;2061000;28;20694;-65
2021/07/02 04:46:00;;;;;;;7.20;6.50;;;;;22.90;100570.00;;;;2060220;28;20238;-65
2021/07/02 04:47:01;;;;;;;7.30;6.23;;;;;22.90;100564.00;;;;2057553;28;20208;-65
2021/07/02 04:48:01;;;;;;;7.70;6.30;;;;;22.90;100559.00;;;;2063236;28;20239;-65
2021/07/02 04:49:01;;;;;;;7.70;7.00;;;;;22.90;100565.00;;;;2061772;28;20285;-65
2021/07/02 04:50:05;;;;;;;7.60;6.80;;;;;22.90;100567.00;;;;2067323;28;20643;-65
2021/07/02 04:51:07;;;;;;;7.10;6.38;;;;;22.90;100564.00;;;;2060206;28;20709;-65
2021/07/02 04:52:07;;;;;;;7.82;7.13;;;;;22.90;100563.00;;;;2060297;28;20246;-65
2021/07/02 04:53:07;;;;;;;6.67;6.07;;;;;22.80;100567.00;;;;2060135;28;20311;-65
2021/07/02 04:54:08;;;;;;;8.60;6.67;;;;;22.90;100561.00;;;;2060885;28;20222;-65
2021/07/02 04:55:09;;;;;;;7.83;6.70;;;;;22.90;100567.00;;;;2061072;28;20758;-65
2021/07/02 04:56:11;;;;;;;6.43;5.82;;;;;22.90;100558.00;;;;2059056;28;20212;-65
2021/07/02 04:57:12;;;;;;;7.30;6.57;;;;;22.90;100562.00;;;;2063316;28;20219;-65
2021/07/02 04:58:12;;;;;;;10.90;6.33;;;;;22.90;100561.00;;;;2061060;28;20254;-65
2021/07/02 04:59:17;;;;;;;8.47;6.80;;;;;22.90;100556.00;;;;2060998;28;20211;-65